sensor_id;sensor_type;location;lat;lon;timestamp;P1;durP1;ratioP1;P2;durP2;ratioP2
48727;SDS011;34527;45.618;5.130;2023-08-21T06:58:55;11.23;;;9.40;;
48727;SDS011;34527;45.618;5.130;2023-08-21T07:01:21;13.50;;;9.95;;
48727;SDS011;34527;45.618;5.130;2023-08-21T07:03:47;15.82;;;10.55;;
48727;SDS011;34527;45.618;5.130;2023-08-21T07:06:13;14.43;;;9.68;;
48727;SDS011;34527;45.618;5.130;2023-08-21T07:08:38;14.65;;;9.88;;
48727;SDS011;34527;45.618;5.130;2023-08-21T07:11:05;15.05;;;9.13;;
48727;SDS011;34527;45.618;5.130;2023-08-21T07:13:33;23.15;;;10.50;;
48727;SDS011;34527;45.618;5.130;2023-08-21T07:15:59;10.38;;;9.27;;
48727;SDS011;34527;45.618;5.130;2023-08-21T07:18:27;12.98;;;9.15;;
48727;SDS011;34527;45.618;5.130;2023-08-21T07:20:53;10.43;;;9.35;;
48727;SDS011;34527;45.618;5.130;2023-08-21T07:23:19;12.80;;;9.75;;
48727;SDS011;34527;45.618;5.130;2023-08-21T07:25:44;11.95;;;9.93;;
48727;SDS011;34527;45.618;5.130;2023-08-21T07:28:10;11.13;;;8.88;;
48727;SDS011;34527;45.618;5.130;2023-08-21T07:30:36;12.25;;;9.30;;
48727;SDS011;34527;45.618;5.130;2023-08-21T07:33:03;12.13;;;8.65;;
48727;SDS011;34527;45.618;5.130;2023-08-21T07:35:30;11.10;;;8.40;;
48727;SDS011;34527;45.618;5.130;2023-08-21T07:37:56;11.57;;;9.10;;
48727;SDS011;34527;45.618;5.130;2023-08-21T07:40:21;12.85;;;8.82;;
48727;SDS011;34527;45.618;5.130;2023-08-21T07:42:47;10.90;;;8.98;;
48727;SDS011;34527;45.618;5.130;2023-08-21T07:45:12;9.32;;;8.43;;
48727;SDS011;34527;45.618;5.130;2023-08-21T07:47:38;12.85;;;8.50;;
48727;SDS011;34527;45.618;5.130;2023-08-21T07:50:05;9.40;;;8.40;;
48727;SDS011;34527;45.618;5.130;2023-08-21T07:52:31;15.95;;;8.20;;
48727;SDS011;34527;45.618;5.130;2023-08-21T07:54:57;11.93;;;8.02;;
48727;SDS011;34527;45.618;5.130;2023-08-21T07:57:25;8.50;;;7.57;;
48727;SDS011;34527;45.618;5.130;2023-08-21T07:59:52;10.13;;;8.52;;
48727;SDS011;34527;45.618;5.130;2023-08-21T08:02:17;11.43;;;8.00;;
48727;SDS011;34527;45.618;5.130;2023-08-21T08:04:43;8.80;;;7.97;;
48727;SDS011;34527;45.618;5.130;2023-08-21T08:07:09;11.13;;;7.78;;
48727;SDS011;34527;45.618;5.130;2023-08-21T08:09:34;12.23;;;7.97;;
48727;SDS011;34527;45.618;5.130;2023-08-21T08:12:01;12.02;;;8.63;;
48727;SDS011;34527;45.618;5.130;2023-08-21T08:14:26;10.70;;;8.05;;
48727;SDS011;34527;45.618;5.130;2023-08-21T08:16:52;10.52;;;8.30;;
48727;SDS011;34527;45.618;5.130;2023-08-21T08:19:17;8.77;;;7.30;;
48727;SDS011;34527;45.618;5.130;2023-08-21T08:21:43;8.20;;;7.40;;
48727;SDS011;34527;45.618;5.130;2023-08-21T08:24:09;8.30;;;7.40;;
48727;SDS011;34527;45.618;5.130;2023-08-21T08:26:34;8.85;;;7.95;;
48727;SDS011;34527;45.618;5.130;2023-08-21T08:29:00;8.30;;;7.53;;
48727;SDS011;34527;45.618;5.130;2023-08-21T08:31:26;11.10;;;7.82;;
48727;SDS011;34527;45.618;5.130;2023-08-21T08:33:52;11.20;;;7.78;;
48727;SDS011;34527;45.618;5.130;2023-08-21T08:36:19;14.10;;;7.45;;
48727;SDS011;34527;45.618;5.130;2023-08-21T08:38:44;8.88;;;7.70;;
48727;SDS011;34527;45.618;5.130;2023-08-21T08:41:11;8.90;;;7.40;;
48727;SDS011;34527;45.618;5.130;2023-08-21T08:43:41;9.68;;;8.15;;
48727;SDS011;34527;45.618;5.130;2023-08-21T08:46:07;9.38;;;6.93;;
48727;SDS011;34527;45.618;5.130;2023-08-21T08:48:35;8.57;;;7.63;;
48727;SDS011;34527;45.618;5.130;2023-08-21T08:51:01;10.73;;;7.35;;
48727;SDS011;34527;45.618;5.130;2023-08-21T08:53:31;12.10;;;7.57;;
48727;SDS011;34527;45.618;5.130;2023-08-21T08:55:57;9.55;;;7.55;;
48727;SDS011;34527;45.618;5.130;2023-08-21T08:58:23;8.25;;;7.55;;
48727;SDS011;34527;45.618;5.130;2023-08-21T09:00:49;7.95;;;6.70;;
48727;SDS011;34527;45.618;5.130;2023-08-21T09:03:15;10.63;;;7.30;;
48727;SDS011;34527;45.618;5.130;2023-08-21T09:05:41;11.73;;;7.85;;
48727;SDS011;34527;45.618;5.130;2023-08-21T09:08:10;9.70;;;7.53;;
48727;SDS011;34527;45.618;5.130;2023-08-21T09:10:38;8.07;;;6.65;;
48727;SDS011;34527;45.618;5.130;2023-08-21T09:13:13;11.00;;;7.15;;
48727;SDS011;34527;45.618;5.130;2023-08-21T09:15:53;9.02;;;7.45;;
48727;SDS011;34527;45.618;5.130;2023-08-21T09:18:19;12.48;;;7.82;;
48727;SDS011;34527;45.618;5.130;2023-08-21T09:20:44;12.38;;;7.45;;
48727;SDS011;34527;45.618;5.130;2023-08-21T09:23:14;11.23;;;7.22;;
48727;SDS011;34527;45.618;5.130;2023-08-21T09:25:41;11.27;;;7.10;;
48727;SDS011;34527;45.618;5.130;2023-08-21T09:28:11;11.45;;;7.53;;
48727;SDS011;34527;45.618;5.130;2023-08-21T09:31:10;11.85;;;6.57;;
48727;SDS011;34527;45.618;5.130;2023-08-21T09:33:29;7.90;;;6.80;;
48727;SDS011;34527;45.618;5.130;2023-08-21T09:35:54;7.07;;;6.00;;
48727;SDS011;34527;45.618;5.130;2023-08-21T09:38:20;9.95;;;7.05;;
48727;SDS011;34527;45.618;5.130;2023-08-21T09:40:50;11.90;;;6.70;;
48727;SDS011;34527;45.618;5.130;2023-08-21T09:43:17;12.60;;;7.00;;
48727;SDS011;34527;45.618;5.130;2023-08-21T09:45:53;9.20;;;6.78;;
48727;SDS011;34527;45.618;5.130;2023-08-21T09:48:24;7.47;;;6.20;;
48727;SDS011;34527;45.618;5.130;2023-08-21T09:50:54;11.73;;;7.15;;
48727;SDS011;34527;45.618;5.130;2023-08-21T09:53:21;9.20;;;6.90;;
48727;SDS011;34527;45.618;5.130;2023-08-21T09:55:48;10.23;;;6.88;;
48727;SDS011;34527;45.618;5.130;2023-08-21T09:58:19;11.70;;;6.80;;
48727;SDS011;34527;45.618;5.130;2023-08-21T10:00:45;10.73;;;6.50;;
48727;SDS011;34527;45.618;5.130;2023-08-21T10:03:13;12.15;;;7.05;;
48727;SDS011;34527;45.618;5.130;2023-08-21T10:05:43;8.15;;;6.68;;
48727;SDS011;34527;45.618;5.130;2023-08-21T10:08:09;12.25;;;6.10;;
48727;SDS011;34527;45.618;5.130;2023-08-21T10:10:37;10.63;;;6.45;;
48727;SDS011;34527;45.618;5.130;2023-08-21T10:13:04;6.65;;;5.97;;
48727;SDS011;34527;45.618;5.130;2023-08-21T10:15:31;6.95;;;6.25;;
48727;SDS011;34527;45.618;5.130;2023-08-21T10:17:58;18.80;;;6.50;;
48727;SDS011;34527;45.618;5.130;2023-08-21T10:20:42;12.98;;;6.53;;
48727;SDS011;34527;45.618;5.130;2023-08-21T10:23:08;7.03;;;6.15;;
48727;SDS011;34527;45.618;5.130;2023-08-21T10:25:33;9.98;;;6.10;;
48727;SDS011;34527;45.618;5.130;2023-08-21T10:28:07;9.25;;;5.97;;
48727;SDS011;34527;45.618;5.130;2023-08-21T10:30:33;8.73;;;5.80;;
48727;SDS011;34527;45.618;5.130;2023-08-21T10:32:59;7.75;;;6.80;;
48727;SDS011;34527;45.618;5.130;2023-08-21T10:35:28;6.95;;;5.65;;
48727;SDS011;34527;45.618;5.130;2023-08-21T10:38:14;11.57;;;6.40;;
48727;SDS011;34527;45.618;5.130;2023-08-21T10:46:06;9.27;;;5.85;;
48727;SDS011;34527;45.618;5.130;2023-08-21T10:48:35;8.88;;;5.53;;
48727;SDS011;34527;45.618;5.130;2023-08-21T10:51:02;10.73;;;5.82;;
48727;SDS011;34527;45.618;5.130;2023-08-21T10:53:29;11.43;;;7.03;;
48727;SDS011;34527;45.618;5.130;2023-08-21T10:55:56;7.47;;;5.25;;
48727;SDS011;34527;45.618;5.130;2023-08-21T10:58:22;11.80;;;5.15;;
48727;SDS011;34527;45.618;5.130;2023-08-21T11:01:00;8.93;;;5.32;;
48727;SDS011;34527;45.618;5.130;2023-08-21T11:03:25;23.42;;;7.97;;
48727;SDS011;34527;45.618;5.130;2023-08-21T11:06:01;9.68;;;5.35;;
48727;SDS011;34527;45.618;5.130;2023-08-21T11:08:34;13.88;;;5.18;;
48727;SDS011;34527;45.618;5.130;2023-08-21T11:11:01;8.45;;;5.20;;
48727;SDS011;34527;45.618;5.130;2023-08-21T11:13:27;7.07;;;4.70;;
48727;SDS011;34527;45.618;5.130;2023-08-21T11:16:03;11.98;;;5.40;;
48727;SDS011;34527;45.618;5.130;2023-08-21T11:18:30;7.15;;;5.15;;
48727;SDS011;34527;45.618;5.130;2023-08-21T11:21:07;14.48;;;5.25;;
48727;SDS011;34527;45.618;5.130;2023-08-21T11:23:34;5.47;;;4.72;;
48727;SDS011;34527;45.618;5.130;2023-08-21T11:26:02;5.63;;;4.90;;
48727;SDS011;34527;45.618;5.130;2023-08-21T11:28:28;7.18;;;4.60;;
48727;SDS011;34527;45.618;5.130;2023-08-21T11:30:55;12.43;;;5.70;;
48727;SDS011;34527;45.618;5.130;2023-08-21T11:33:22;11.57;;;4.63;;
48727;SDS011;34527;45.618;5.130;2023-08-21T11:35:48;9.82;;;4.43;;
48727;SDS011;34527;45.618;5.130;2023-08-21T11:38:24;8.77;;;4.35;;
48727;SDS011;34527;45.618;5.130;2023-08-21T11:40:52;5.13;;;3.50;;
48727;SDS011;34527;45.618;5.130;2023-08-21T11:43:20;5.97;;;4.07;;
48727;SDS011;34527;45.618;5.130;2023-08-21T11:45:46;6.40;;;3.25;;
48727;SDS011;34527;45.618;5.130;2023-08-21T11:48:12;8.43;;;3.00;;
48727;SDS011;34527;45.618;5.130;2023-08-21T11:50:38;7.68;;;3.50;;
48727;SDS011;34527;45.618;5.130;2023-08-21T11:53:04;5.80;;;3.60;;
48727;SDS011;34527;45.618;5.130;2023-08-21T11:55:30;6.85;;;3.72;;
48727;SDS011;34527;45.618;5.130;2023-08-21T11:57:56;5.68;;;3.47;;
48727;SDS011;34527;45.618;5.130;2023-08-21T12:00:27;5.95;;;3.85;;
48727;SDS011;34527;45.618;5.130;2023-08-21T12:02:54;5.40;;;3.70;;
48727;SDS011;34527;45.618;5.130;2023-08-21T12:05:24;4.15;;;2.60;;
48727;SDS011;34527;45.618;5.130;2023-08-21T12:07:50;7.47;;;3.40;;
48727;SDS011;34527;45.618;5.130;2023-08-21T12:10:26;4.22;;;2.80;;
48727;SDS011;34527;45.618;5.130;2023-08-21T12:12:52;4.10;;;3.40;;
48727;SDS011;34527;45.618;5.130;2023-08-21T12:15:19;5.60;;;3.33;;
48727;SDS011;34527;45.618;5.130;2023-08-21T12:17:44;8.30;;;3.72;;
48727;SDS011;34527;45.618;5.130;2023-08-21T12:20:10;6.65;;;3.15;;
48727;SDS011;34527;45.618;5.130;2023-08-21T12:22:36;4.18;;;3.10;;
48727;SDS011;34527;45.618;5.130;2023-08-21T12:25:03;5.70;;;3.10;;
48727;SDS011;34527;45.618;5.130;2023-08-21T12:27:30;7.72;;;3.15;;
48727;SDS011;34527;45.618;5.130;2023-08-21T12:29:56;5.15;;;2.83;;
48727;SDS011;34527;45.618;5.130;2023-08-21T12:32:21;7.18;;;3.20;;
48727;SDS011;34527;45.618;5.130;2023-08-21T12:34:47;2.88;;;2.47;;
48727;SDS011;34527;45.618;5.130;2023-08-21T12:37:13;5.35;;;2.90;;
48727;SDS011;34527;45.618;5.130;2023-08-21T12:39:39;5.43;;;2.95;;
48727;SDS011;34527;45.618;5.130;2023-08-21T12:42:04;3.30;;;2.80;;
48727;SDS011;34527;45.618;5.130;2023-08-21T12:44:30;3.70;;;2.90;;
48727;SDS011;34527;45.618;5.130;2023-08-21T12:46:56;3.80;;;2.75;;
48727;SDS011;34527;45.618;5.130;2023-08-21T12:49:21;3.33;;;2.30;;
48727;SDS011;34527;45.618;5.130;2023-08-21T12:51:47;4.00;;;2.72;;
48727;SDS011;34527;45.618;5.130;2023-08-21T12:54:13;4.82;;;3.45;;
48727;SDS011;34527;45.618;5.130;2023-08-21T12:56:38;5.68;;;3.15;;
48727;SDS011;34527;45.618;5.130;2023-08-21T12:59:04;5.53;;;2.80;;
48727;SDS011;34527;45.618;5.130;2023-08-21T13:01:30;4.03;;;3.35;;
48727;SDS011;34527;45.618;5.130;2023-08-21T13:03:59;4.78;;;3.15;;
48727;SDS011;34527;45.618;5.130;2023-08-21T13:06:25;3.75;;;2.92;;
48727;SDS011;34527;45.618;5.130;2023-08-21T13:08:50;7.07;;;3.35;;
48727;SDS011;34527;45.618;5.130;2023-08-21T13:11:16;8.98;;;2.85;;
48727;SDS011;34527;45.618;5.130;2023-08-21T13:13:41;7.50;;;2.70;;
48727;SDS011;34527;45.618;5.130;2023-08-21T13:16:07;15.27;;;3.40;;
48727;SDS011;34527;45.618;5.130;2023-08-21T13:18:33;4.72;;;3.00;;
48727;SDS011;34527;45.618;5.130;2023-08-21T13:20:58;6.53;;;4.47;;
48727;SDS011;34527;45.618;5.130;2023-08-21T13:23:24;3.60;;;2.90;;
48727;SDS011;34527;45.618;5.130;2023-08-21T13:25:49;4.80;;;2.90;;
48727;SDS011;34527;45.618;5.130;2023-08-21T13:28:15;22.13;;;3.72;;
48727;SDS011;34527;45.618;5.130;2023-08-21T13:30:40;5.75;;;2.60;;
48727;SDS011;34527;45.618;5.130;2023-08-21T13:33:06;4.93;;;3.10;;
48727;SDS011;34527;45.618;5.130;2023-08-21T13:35:32;5.22;;;3.05;;
48727;SDS011;34527;45.618;5.130;2023-08-21T13:37:58;4.60;;;3.10;;
48727;SDS011;34527;45.618;5.130;2023-08-21T13:40:24;5.15;;;2.80;;
48727;SDS011;34527;45.618;5.130;2023-08-21T13:42:50;22.60;;;4.03;;
48727;SDS011;34527;45.618;5.130;2023-08-21T13:45:17;7.75;;;3.22;;
48727;SDS011;34527;45.618;5.130;2023-08-21T13:47:44;2.90;;;2.58;;
48727;SDS011;34527;45.618;5.130;2023-08-21T13:50:13;5.53;;;2.63;;
48727;SDS011;34527;45.618;5.130;2023-08-21T13:52:40;5.63;;;3.47;;
48727;SDS011;34527;45.618;5.130;2023-08-21T13:55:08;4.88;;;3.10;;
48727;SDS011;34527;45.618;5.130;2023-08-21T13:57:34;6.10;;;3.13;;
48727;SDS011;34527;45.618;5.130;2023-08-21T14:00:00;6.25;;;3.17;;
48727;SDS011;34527;45.618;5.130;2023-08-21T14:02:27;3.08;;;2.83;;
48727;SDS011;34527;45.618;5.130;2023-08-21T14:04:53;9.13;;;3.35;;
48727;SDS011;34527;45.618;5.130;2023-08-21T14:07:18;5.03;;;3.03;;
48727;SDS011;34527;45.618;5.130;2023-08-21T14:09:44;5.50;;;2.90;;
48727;SDS011;34527;45.618;5.130;2023-08-21T14:12:09;4.90;;;3.03;;
48727;SDS011;34527;45.618;5.130;2023-08-21T14:14:35;4.05;;;2.90;;
48727;SDS011;34527;45.618;5.130;2023-08-21T14:17:01;7.15;;;5.18;;
48727;SDS011;34527;45.618;5.130;2023-08-21T14:19:28;6.00;;;3.30;;
48727;SDS011;34527;45.618;5.130;2023-08-21T14:21:54;6.00;;;2.80;;
48727;SDS011;34527;45.618;5.130;2023-08-21T14:24:20;4.40;;;2.80;;
48727;SDS011;34527;45.618;5.130;2023-08-21T14:26:45;6.18;;;3.28;;
48727;SDS011;34527;45.618;5.130;2023-08-21T14:29:11;5.72;;;2.50;;
48727;SDS011;34527;45.618;5.130;2023-08-21T14:31:37;6.22;;;2.90;;
48727;SDS011;34527;45.618;5.130;2023-08-21T14:34:02;5.15;;;2.80;;
48727;SDS011;34527;45.618;5.130;2023-08-21T14:36:28;13.13;;;3.88;;
48727;SDS011;34527;45.618;5.130;2023-08-21T14:38:53;7.25;;;3.00;;
48727;SDS011;34527;45.618;5.130;2023-08-21T14:41:19;6.35;;;3.35;;
48727;SDS011;34527;45.618;5.130;2023-08-21T14:43:44;7.63;;;3.03;;
48727;SDS011;34527;45.618;5.130;2023-08-21T14:46:10;3.83;;;3.03;;
48727;SDS011;34527;45.618;5.130;2023-08-21T14:48:36;4.72;;;2.85;;
48727;SDS011;34527;45.618;5.130;2023-08-21T14:51:03;4.75;;;2.85;;
48727;SDS011;34527;45.618;5.130;2023-08-21T14:53:29;4.93;;;3.10;;
48727;SDS011;34527;45.618;5.130;2023-08-21T14:55:55;5.72;;;2.92;;
48727;SDS011;34527;45.618;5.130;2023-08-21T14:58:21;5.93;;;3.00;;
48727;SDS011;34527;45.618;5.130;2023-08-21T15:00:48;3.80;;;2.95;;
48727;SDS011;34527;45.618;5.130;2023-08-21T15:03:14;6.85;;;3.20;;
48727;SDS011;34527;45.618;5.130;2023-08-21T15:05:39;6.65;;;3.28;;
48727;SDS011;34527;45.618;5.130;2023-08-21T15:08:05;5.50;;;3.20;;
48727;SDS011;34527;45.618;5.130;2023-08-21T15:10:31;4.55;;;3.40;;
48727;SDS011;34527;45.618;5.130;2023-08-21T15:12:56;5.57;;;3.03;;
48727;SDS011;34527;45.618;5.130;2023-08-21T15:15:22;22.17;;;4.10;;
48727;SDS011;34527;45.618;5.130;2023-08-21T15:17:47;25.55;;;4.15;;
48727;SDS011;34527;45.618;5.130;2023-08-21T15:20:13;12.35;;;3.47;;
48727;SDS011;34527;45.618;5.130;2023-08-21T15:22:41;6.45;;;2.97;;
48727;SDS011;34527;45.618;5.130;2023-08-21T15:25:08;4.43;;;2.80;;
48727;SDS011;34527;45.618;5.130;2023-08-21T15:27:34;4.78;;;3.13;;
48727;SDS011;34527;45.618;5.130;2023-08-21T15:30:00;5.22;;;2.88;;
48727;SDS011;34527;45.618;5.130;2023-08-21T15:32:25;7.90;;;3.20;;
48727;SDS011;34527;45.618;5.130;2023-08-21T15:34:51;10.82;;;3.50;;
48727;SDS011;34527;45.618;5.130;2023-08-21T15:37:16;8.23;;;3.20;;
48727;SDS011;34527;45.618;5.130;2023-08-21T15:39:42;5.75;;;3.35;;
48727;SDS011;34527;45.618;5.130;2023-08-21T15:42:08;3.70;;;3.13;;
48727;SDS011;34527;45.618;5.130;2023-08-21T15:44:33;5.53;;;3.72;;
48727;SDS011;34527;45.618;5.130;2023-08-21T15:46:59;5.05;;;3.03;;
48727;SDS011;34527;45.618;5.130;2023-08-21T15:49:24;7.65;;;4.38;;
48727;SDS011;34527;45.618;5.130;2023-08-21T15:51:50;3.80;;;3.40;;
48727;SDS011;34527;45.618;5.130;2023-08-21T15:54:19;5.60;;;3.40;;
48727;SDS011;34527;45.618;5.130;2023-08-21T15:56:45;7.20;;;3.33;;
48727;SDS011;34527;45.618;5.130;2023-08-21T15:59:11;9.02;;;3.65;;
48727;SDS011;34527;45.618;5.130;2023-08-21T16:01:37;5.28;;;3.22;;
48727;SDS011;34527;45.618;5.130;2023-08-21T16:04:02;5.00;;;3.05;;
48727;SDS011;34527;45.618;5.130;2023-08-21T16:06:28;6.80;;;3.72;;
48727;SDS011;34527;45.618;5.130;2023-08-21T16:08:54;4.72;;;3.38;;
48727;SDS011;34527;45.618;5.130;2023-08-21T16:11:19;4.47;;;2.88;;
48727;SDS011;34527;45.618;5.130;2023-08-21T16:13:45;4.13;;;3.38;;
48727;SDS011;34527;45.618;5.130;2023-08-21T16:16:11;6.57;;;3.58;;
48727;SDS011;34527;45.618;5.130;2023-08-21T16:18:36;4.95;;;3.30;;
48727;SDS011;34527;45.618;5.130;2023-08-21T16:21:05;5.15;;;3.15;;
48727;SDS011;34527;45.618;5.130;2023-08-21T16:23:32;9.65;;;3.03;;
48727;SDS011;34527;45.618;5.130;2023-08-21T16:25:58;3.70;;;3.40;;
48727;SDS011;34527;45.618;5.130;2023-08-21T16:28:23;4.00;;;3.13;;
48727;SDS011;34527;45.618;5.130;2023-08-21T16:30:49;5.30;;;3.60;;
48727;SDS011;34527;45.618;5.130;2023-08-21T16:33:15;5.05;;;3.40;;
48727;SDS011;34527;45.618;5.130;2023-08-21T16:35:40;4.35;;;3.30;;
48727;SDS011;34527;45.618;5.130;2023-08-21T16:38:06;3.88;;;3.33;;
48727;SDS011;34527;45.618;5.130;2023-08-21T16:40:32;9.27;;;3.30;;
48727;SDS011;34527;45.618;5.130;2023-08-21T16:42:58;4.60;;;2.75;;
48727;SDS011;34527;45.618;5.130;2023-08-21T16:45:23;5.28;;;3.15;;
48727;SDS011;34527;45.618;5.130;2023-08-21T16:47:49;3.55;;;3.20;;
48727;SDS011;34527;45.618;5.130;2023-08-21T16:50:15;9.77;;;3.53;;
48727;SDS011;34527;45.618;5.130;2023-08-21T16:52:42;4.82;;;3.05;;
48727;SDS011;34527;45.618;5.130;2023-08-21T16:55:07;3.35;;;2.80;;
48727;SDS011;34527;45.618;5.130;2023-08-21T16:57:33;5.78;;;3.38;;
48727;SDS011;34527;45.618;5.130;2023-08-21T16:59:59;3.55;;;3.20;;
48727;SDS011;34527;45.618;5.130;2023-08-21T17:02:24;6.97;;;3.53;;
48727;SDS011;34527;45.618;5.130;2023-08-21T17:04:50;6.20;;;3.38;;
48727;SDS011;34527;45.618;5.130;2023-08-21T17:07:16;7.03;;;3.08;;
48727;SDS011;34527;45.618;5.130;2023-08-21T17:09:46;4.45;;;2.80;;
48727;SDS011;34527;45.618;5.130;2023-08-21T17:12:12;3.70;;;3.20;;
48727;SDS011;34527;45.618;5.130;2023-08-21T17:14:39;6.88;;;3.40;;
48727;SDS011;34527;45.618;5.130;2023-08-21T17:17:04;5.53;;;3.22;;
48727;SDS011;34527;45.618;5.130;2023-08-21T17:19:30;4.05;;;3.00;;
48727;SDS011;34527;45.618;5.130;2023-08-21T17:21:56;3.58;;;2.92;;
48727;SDS011;34527;45.618;5.130;2023-08-21T17:24:22;8.80;;;3.10;;
48727;SDS011;34527;45.618;5.130;2023-08-21T17:26:48;3.40;;;3.10;;
48727;SDS011;34527;45.618;5.130;2023-08-21T17:29:13;6.97;;;3.80;;
48727;SDS011;34527;45.618;5.130;2023-08-21T17:31:39;6.13;;;3.50;;
48727;SDS011;34527;45.618;5.130;2023-08-21T17:34:05;10.05;;;3.40;;
48727;SDS011;34527;45.618;5.130;2023-08-21T17:36:30;4.32;;;3.35;;
48727;SDS011;34527;45.618;5.130;2023-08-21T17:38:56;7.28;;;3.35;;
48727;SDS011;34527;45.618;5.130;2023-08-21T17:41:21;5.93;;;3.10;;
48727;SDS011;34527;45.618;5.130;2023-08-21T17:43:47;5.55;;;3.50;;
48727;SDS011;34527;45.618;5.130;2023-08-21T17:46:13;10.38;;;3.47;;
48727;SDS011;34527;45.618;5.130;2023-08-21T17:48:39;3.80;;;3.33;;
48727;SDS011;34527;45.618;5.130;2023-08-21T17:51:05;15.50;;;3.55;;
48727;SDS011;34527;45.618;5.130;2023-08-21T17:53:31;20.88;;;4.00;;
48727;SDS011;34527;45.618;5.130;2023-08-21T17:55:57;4.85;;;3.08;;
48727;SDS011;34527;45.618;5.130;2023-08-21T17:58:23;4.95;;;2.90;;
48727;SDS011;34527;45.618;5.130;2023-08-21T18:00:50;4.22;;;3.55;;
48727;SDS011;34527;45.618;5.130;2023-08-21T18:03:16;3.75;;;3.33;;
48727;SDS011;34527;45.618;5.130;2023-08-21T18:05:41;4.70;;;3.25;;
48727;SDS011;34527;45.618;5.130;2023-08-21T18:08:07;10.27;;;3.35;;
48727;SDS011;34527;45.618;5.130;2023-08-21T18:10:33;7.35;;;3.15;;
48727;SDS011;34527;45.618;5.130;2023-08-21T18:12:58;7.00;;;3.53;;
48727;SDS011;34527;45.618;5.130;2023-08-21T18:15:24;5.68;;;3.25;;
48727;SDS011;34527;45.618;5.130;2023-08-21T18:17:51;4.13;;;3.35;;
48727;SDS011;34527;45.618;5.130;2023-08-21T18:20:17;7.55;;;3.40;;
48727;SDS011;34527;45.618;5.130;2023-08-21T18:22:42;5.82;;;3.08;;
48727;SDS011;34527;45.618;5.130;2023-08-21T18:25:08;7.00;;;3.83;;
48727;SDS011;34527;45.618;5.130;2023-08-21T18:27:34;4.88;;;3.20;;
48727;SDS011;34527;45.618;5.130;2023-08-21T18:29:59;4.00;;;3.03;;
48727;SDS011;34527;45.618;5.130;2023-08-21T18:32:28;3.97;;;3.47;;
48727;SDS011;34527;45.618;5.130;2023-08-21T18:34:54;5.97;;;3.15;;
48727;SDS011;34527;45.618;5.130;2023-08-21T18:37:20;13.40;;;3.80;;
48727;SDS011;34527;45.618;5.130;2023-08-21T18:39:46;8.77;;;4.43;;
48727;SDS011;34527;45.618;5.130;2023-08-21T18:42:11;3.75;;;3.30;;
48727;SDS011;34527;45.618;5.130;2023-08-21T18:44:37;7.78;;;3.70;;
48727;SDS011;34527;45.618;5.130;2023-08-21T18:47:03;16.85;;;3.85;;
48727;SDS011;34527;45.618;5.130;2023-08-21T18:49:29;15.48;;;4.90;;
48727;SDS011;34527;45.618;5.130;2023-08-21T18:51:55;19.85;;;4.18;;
48727;SDS011;34527;45.618;5.130;2023-08-21T18:54:21;9.52;;;4.13;;
48727;SDS011;34527;45.618;5.130;2023-08-21T18:56:48;10.65;;;4.20;;
48727;SDS011;34527;45.618;5.130;2023-08-21T18:59:14;7.13;;;3.90;;
48727;SDS011;34527;45.618;5.130;2023-08-21T19:01:40;6.82;;;4.28;;
48727;SDS011;34527;45.618;5.130;2023-08-21T19:04:06;5.50;;;3.78;;
48727;SDS011;34527;45.618;5.130;2023-08-21T19:06:32;8.75;;;3.97;;
48727;SDS011;34527;45.618;5.130;2023-08-21T19:08:58;7.03;;;3.47;;
48727;SDS011;34527;45.618;5.130;2023-08-21T19:11:23;13.95;;;4.20;;
48727;SDS011;34527;45.618;5.130;2023-08-21T19:13:49;11.60;;;4.63;;
48727;SDS011;34527;45.618;5.130;2023-08-21T19:16:15;10.50;;;4.60;;
48727;SDS011;34527;45.618;5.130;2023-08-21T19:18:41;10.52;;;4.10;;
48727;SDS011;34527;45.618;5.130;2023-08-21T19:21:06;17.63;;;4.32;;
48727;SDS011;34527;45.618;5.130;2023-08-21T19:23:32;9.02;;;4.07;;
48727;SDS011;34527;45.618;5.130;2023-08-21T19:25:58;10.18;;;4.00;;
48727;SDS011;34527;45.618;5.130;2023-08-21T19:28:23;18.88;;;4.20;;
48727;SDS011;34527;45.618;5.130;2023-08-21T19:30:49;8.05;;;4.07;;
48727;SDS011;34527;45.618;5.130;2023-08-21T19:33:15;15.20;;;4.40;;
48727;SDS011;34527;45.618;5.130;2023-08-21T19:35:45;11.20;;;4.28;;
48727;SDS011;34527;45.618;5.130;2023-08-21T19:38:14;11.52;;;4.25;;
48727;SDS011;34527;45.618;5.130;2023-08-21T19:40:39;10.48;;;4.15;;
48727;SDS011;34527;45.618;5.130;2023-08-21T19:43:08;8.48;;;4.20;;
48727;SDS011;34527;45.618;5.130;2023-08-21T19:45:34;8.20;;;3.90;;
48727;SDS011;34527;45.618;5.130;2023-08-21T19:47:59;5.88;;;3.75;;
48727;SDS011;34527;45.618;5.130;2023-08-21T19:50:25;7.53;;;3.83;;
48727;SDS011;34527;45.618;5.130;2023-08-21T19:52:50;8.13;;;3.72;;
48727;SDS011;34527;45.618;5.130;2023-08-21T19:55:16;6.82;;;3.65;;
48727;SDS011;34527;45.618;5.130;2023-08-21T19:57:42;7.93;;;3.53;;
48727;SDS011;34527;45.618;5.130;2023-08-21T20:00:07;9.85;;;4.10;;
48727;SDS011;34527;45.618;5.130;2023-08-21T20:02:35;6.50;;;3.78;;
48727;SDS011;34527;45.618;5.130;2023-08-21T20:05:00;8.88;;;4.03;;
48727;SDS011;34527;45.618;5.130;2023-08-21T20:07:26;7.55;;;3.50;;
48727;SDS011;34527;45.618;5.130;2023-08-21T20:09:51;4.35;;;3.70;;
48727;SDS011;34527;45.618;5.130;2023-08-21T20:12:17;6.63;;;3.60;;
48727;SDS011;34527;45.618;5.130;2023-08-21T20:14:43;4.38;;;3.70;;
48727;SDS011;34527;45.618;5.130;2023-08-21T20:17:09;5.18;;;4.03;;
48727;SDS011;34527;45.618;5.130;2023-08-21T20:19:35;10.15;;;3.80;;
48727;SDS011;34527;45.618;5.130;2023-08-21T20:22:02;11.60;;;4.25;;
48727;SDS011;34527;45.618;5.130;2023-08-21T20:24:27;9.88;;;4.13;;
48727;SDS011;34527;45.618;5.130;2023-08-21T20:26:55;9.13;;;4.05;;
48727;SDS011;34527;45.618;5.130;2023-08-21T20:29:21;12.23;;;4.50;;
48727;SDS011;34527;45.618;5.130;2023-08-21T20:31:46;10.05;;;3.92;;
48727;SDS011;34527;45.618;5.130;2023-08-21T20:34:12;6.10;;;4.00;;
48727;SDS011;34527;45.618;5.130;2023-08-21T20:36:37;9.60;;;4.07;;
48727;SDS011;34527;45.618;5.130;2023-08-21T20:39:03;6.43;;;4.38;;
48727;SDS011;34527;45.618;5.130;2023-08-21T20:41:29;4.97;;;3.70;;
48727;SDS011;34527;45.618;5.130;2023-08-21T20:43:54;6.72;;;4.28;;
48727;SDS011;34527;45.618;5.130;2023-08-21T20:46:20;6.18;;;3.60;;
48727;SDS011;34527;45.618;5.130;2023-08-21T20:48:45;6.78;;;4.20;;
48727;SDS011;34527;45.618;5.130;2023-08-21T20:51:11;4.50;;;4.10;;
48727;SDS011;34527;45.618;5.130;2023-08-21T20:53:38;9.02;;;4.40;;
48727;SDS011;34527;45.618;5.130;2023-08-21T20:56:03;7.78;;;4.20;;
48727;SDS011;34527;45.618;5.130;2023-08-21T20:58:31;7.47;;;4.32;;
48727;SDS011;34527;45.618;5.130;2023-08-21T21:00:56;5.70;;;3.65;;
48727;SDS011;34527;45.618;5.130;2023-08-21T21:03:22;6.32;;;3.88;;
48727;SDS011;34527;45.618;5.130;2023-08-21T21:05:48;5.40;;;4.00;;
48727;SDS011;34527;45.618;5.130;2023-08-21T21:08:13;7.15;;;4.60;;
48727;SDS011;34527;45.618;5.130;2023-08-21T21:10:39;5.88;;;4.10;;
48727;SDS011;34527;45.618;5.130;2023-08-21T21:13:04;6.68;;;3.78;;
48727;SDS011;34527;45.618;5.130;2023-08-21T21:15:30;10.00;;;4.55;;
48727;SDS011;34527;45.618;5.130;2023-08-21T21:17:56;7.78;;;4.15;;
48727;SDS011;34527;45.618;5.130;2023-08-21T21:20:21;4.82;;;4.15;;
48727;SDS011;34527;45.618;5.130;2023-08-21T21:22:47;8.85;;;4.35;;
48727;SDS011;34527;45.618;5.130;2023-08-21T21:25:13;5.28;;;4.05;;
48727;SDS011;34527;45.618;5.130;2023-08-21T21:27:39;7.40;;;4.25;;
48727;SDS011;34527;45.618;5.130;2023-08-21T21:30:05;6.75;;;4.45;;
48727;SDS011;34527;45.618;5.130;2023-08-21T21:32:31;5.00;;;4.50;;
48727;SDS011;34527;45.618;5.130;2023-08-21T21:34:57;4.70;;;4.07;;
48727;SDS011;34527;45.618;5.130;2023-08-21T21:37:22;6.10;;;4.20;;
48727;SDS011;34527;45.618;5.130;2023-08-21T21:39:49;4.82;;;4.13;;
48727;SDS011;34527;45.618;5.130;2023-08-21T21:42:15;6.22;;;4.10;;